sensor_id;sensor_type;location;lat;lon;timestamp;temperature;humidity
69715;HTU21D;56981;53.532;49.398;2023-04-21T00:01:05;10.38;48.07
69715;HTU21D;56981;53.532;49.398;2023-04-21T00:03:34;10.34;47.65
69715;HTU21D;56981;53.532;49.398;2023-04-21T00:06:04;10.33;47.40
69715;HTU21D;56981;53.532;49.398;2023-04-21T00:08:34;10.33;46.99
69715;HTU21D;56981;53.532;49.398;2023-04-21T00:11:08;10.37;47.17
69715;HTU21D;56981;53.532;49.398;2023-04-21T00:13:34;10.41;47.82
69715;HTU21D;56981;53.532;49.398;2023-04-21T00:16:02;10.42;48.21
69715;HTU21D;56981;53.532;49.398;2023-04-21T00:18:28;10.41;47.92
69715;HTU21D;56981;53.532;49.398;2023-04-21T00:20:54;10.38;47.92
69715;HTU21D;56981;53.532;49.398;2023-04-21T00:23:21;10.41;47.76
69715;HTU21D;56981;53.532;49.398;2023-04-21T00:25:47;10.38;47.02
69715;HTU21D;56981;53.532;49.398;2023-04-21T00:28:13;10.35;46.54
69715;HTU21D;56981;53.532;49.398;2023-04-21T00:30:40;10.35;47.59
69715;HTU21D;56981;53.532;49.398;2023-04-21T00:33:07;10.31;47.13
69715;HTU21D;56981;53.532;49.398;2023-04-21T00:35:33;10.29;47.18
69715;HTU21D;56981;53.532;49.398;2023-04-21T00:38:00;10.33;46.35
69715;HTU21D;56981;53.532;49.398;2023-04-21T00:40:26;10.31;46.49
69715;HTU21D;56981;53.532;49.398;2023-04-21T00:42:52;10.31;47.57
69715;HTU21D;56981;53.532;49.398;2023-04-21T00:45:19;10.37;46.86
69715;HTU21D;56981;53.532;49.398;2023-04-21T00:47:45;10.37;46.38
69715;HTU21D;56981;53.532;49.398;2023-04-21T00:50:11;10.34;46.71
69715;HTU21D;56981;53.532;49.398;2023-04-21T00:52:39;10.28;48.05
69715;HTU21D;56981;53.532;49.398;2023-04-21T00:55:06;10.26;49.19
69715;HTU21D;56981;53.532;49.398;2023-04-21T00:57:35;10.22;50.21
69715;HTU21D;56981;53.532;49.398;2023-04-21T01:00:04;10.20;48.88
69715;HTU21D;56981;53.532;49.398;2023-04-21T01:02:38;10.20;50.47
69715;HTU21D;56981;53.532;49.398;2023-04-21T01:05:05;10.18;50.16
69715;HTU21D;56981;53.532;49.398;2023-04-21T01:07:34;10.21;50.05
69715;HTU21D;56981;53.532;49.398;2023-04-21T01:10:01;10.25;48.98
69715;HTU21D;56981;53.532;49.398;2023-04-21T01:12:28;10.28;48.24
69715;HTU21D;56981;53.532;49.398;2023-04-21T01:14:54;10.33;48.00
69715;HTU21D;56981;53.532;49.398;2023-04-21T01:17:21;10.33;46.77
69715;HTU21D;56981;53.532;49.398;2023-04-21T01:19:47;10.36;47.60
69715;HTU21D;56981;53.532;49.398;2023-04-21T01:22:15;10.36;47.33
69715;HTU21D;56981;53.532;49.398;2023-04-21T01:24:44;10.39;46.31
69715;HTU21D;56981;53.532;49.398;2023-04-21T01:27:15;10.45;45.92
69715;HTU21D;56981;53.532;49.398;2023-04-21T01:29:45;10.51;45.93
69715;HTU21D;56981;53.532;49.398;2023-04-21T01:32:17;10.53;46.54
69715;HTU21D;56981;53.532;49.398;2023-04-21T01:34:44;10.51;46.83
69715;HTU21D;56981;53.532;49.398;2023-04-21T01:37:14;10.55;46.96
69715;HTU21D;56981;53.532;49.398;2023-04-21T01:39:42;10.57;45.63
69715;HTU21D;56981;53.532;49.398;2023-04-21T01:42:09;10.60;47.05
69715;HTU21D;56981;53.532;49.398;2023-04-21T01:44:36;10.57;46.86
69715;HTU21D;56981;53.532;49.398;2023-04-21T01:47:03;10.58;46.09
69715;HTU21D;56981;53.532;49.398;2023-04-21T01:49:30;10.58;46.08
69715;HTU21D;56981;53.532;49.398;2023-04-21T01:51:57;10.64;46.14
69715;HTU21D;56981;53.532;49.398;2023-04-21T01:54:23;10.64;46.21
69715;HTU21D;56981;53.532;49.398;2023-04-21T01:56:50;10.68;46.91
69715;HTU21D;56981;53.532;49.398;2023-04-21T01:59:16;10.71;45.24
69715;HTU21D;56981;53.532;49.398;2023-04-21T02:01:42;10.79;46.48
69715;HTU21D;56981;53.532;49.398;2023-04-21T02:04:08;10.83;45.86
69715;HTU21D;56981;53.532;49.398;2023-04-21T02:06:35;10.93;46.35
69715;HTU21D;56981;53.532;49.398;2023-04-21T02:09:01;11.01;47.22
69715;HTU21D;56981;53.532;49.398;2023-04-21T02:11:28;11.04;47.42
69715;HTU21D;56981;53.532;49.398;2023-04-21T02:13:54;11.10;48.08
69715;HTU21D;56981;53.532;49.398;2023-04-21T02:16:21;11.17;43.44
69715;HTU21D;56981;53.532;49.398;2023-04-21T02:18:52;11.19;46.63
69715;HTU21D;56981;53.532;49.398;2023-04-21T02:21:20;11.27;45.63
69715;HTU21D;56981;53.532;49.398;2023-04-21T02:23:46;11.32;44.40
69715;HTU21D;56981;53.532;49.398;2023-04-21T02:26:13;11.22;44.89
69715;HTU21D;56981;53.532;49.398;2023-04-21T02:28:39;11.25;45.01
69715;HTU21D;56981;53.532;49.398;2023-04-21T02:31:05;11.34;44.56
69715;HTU21D;56981;53.532;49.398;2023-04-21T02:33:32;11.41;43.94
69715;HTU21D;56981;53.532;49.398;2023-04-21T02:35:58;11.48;45.19
69715;HTU21D;56981;53.532;49.398;2023-04-21T02:38:24;11.56;44.06
69715;HTU21D;56981;53.532;49.398;2023-04-21T02:40:51;11.63;43.93
69715;HTU21D;56981;53.532;49.398;2023-04-21T02:43:17;11.70;43.64
69715;HTU21D;56981;53.532;49.398;2023-04-21T02:45:43;11.71;42.68
69715;HTU21D;56981;53.532;49.398;2023-04-21T02:48:10;11.74;43.29
69715;HTU21D;56981;53.532;49.398;2023-04-21T02:50:37;11.79;42.55
69715;HTU21D;56981;53.532;49.398;2023-04-21T02:53:05;11.88;42.10
69715;HTU21D;56981;53.532;49.398;2023-04-21T02:55:31;11.93;43.38
69715;HTU21D;56981;53.532;49.398;2023-04-21T02:57:58;11.99;44.44
69715;HTU21D;56981;53.532;49.398;2023-04-21T03:00:24;12.01;42.97
69715;HTU21D;56981;53.532;49.398;2023-04-21T03:02:50;12.02;42.49
69715;HTU21D;56981;53.532;49.398;2023-04-21T03:05:18;12.04;42.39
69715;HTU21D;56981;53.532;49.398;2023-04-21T03:07:44;12.22;42.31
69715;HTU21D;56981;53.532;49.398;2023-04-21T03:10:11;12.32;43.22
69715;HTU21D;56981;53.532;49.398;2023-04-21T03:12:37;12.44;41.80
69715;HTU21D;56981;53.532;49.398;2023-04-21T03:15:04;12.58;43.73
69715;HTU21D;56981;53.532;49.398;2023-04-21T03:17:30;12.78;41.10
69715;HTU21D;56981;53.532;49.398;2023-04-21T03:19:57;12.94;40.07
69715;HTU21D;56981;53.532;49.398;2023-04-21T03:22:23;13.02;38.91
69715;HTU21D;56981;53.532;49.398;2023-04-21T03:24:50;13.18;37.67
69715;HTU21D;56981;53.532;49.398;2023-04-21T03:27:16;13.31;36.47
69715;HTU21D;56981;53.532;49.398;2023-04-21T03:29:42;13.47;36.56
69715;HTU21D;56981;53.532;49.398;2023-04-21T03:32:08;13.65;36.46
69715;HTU21D;56981;53.532;49.398;2023-04-21T03:34:35;13.69;37.41
69715;HTU21D;56981;53.532;49.398;2023-04-21T03:37:01;13.76;36.62
69715;HTU21D;56981;53.532;49.398;2023-04-21T03:39:28;13.98;36.36
69715;HTU21D;56981;53.532;49.398;2023-04-21T03:41:54;13.98;35.40
69715;HTU21D;56981;53.532;49.398;2023-04-21T03:44:21;14.06;34.03
69715;HTU21D;56981;53.532;49.398;2023-04-21T03:46:51;14.20;34.85
69715;HTU21D;56981;53.532;49.398;2023-04-21T03:49:18;14.37;35.80
69715;HTU21D;56981;53.532;49.398;2023-04-21T03:51:45;14.49;35.56
69715;HTU21D;56981;53.532;49.398;2023-04-21T03:54:11;14.77;34.12
69715;HTU21D;56981;53.532;49.398;2023-04-21T03:56:38;14.88;35.57
69715;HTU21D;56981;53.532;49.398;2023-04-21T03:59:04;15.03;35.43
69715;HTU21D;56981;53.532;49.398;2023-04-21T04:01:32;15.17;37.06
69715;HTU21D;56981;53.532;49.398;2023-04-21T04:03:58;15.40;32.27
69715;HTU21D;56981;53.532;49.398;2023-04-21T04:06:24;15.67;32.32
69715;HTU21D;56981;53.532;49.398;2023-04-21T04:08:51;15.81;30.04
69715;HTU21D;56981;53.532;49.398;2023-04-21T04:11:17;15.84;31.16
69715;HTU21D;56981;53.532;49.398;2023-04-21T04:13:44;16.05;29.72
69715;HTU21D;56981;53.532;49.398;2023-04-21T04:16:10;16.32;29.16
69715;HTU21D;56981;53.532;49.398;2023-04-21T04:18:36;16.69;28.88
69715;HTU21D;56981;53.532;49.398;2023-04-21T04:21:06;16.92;28.23
69715;HTU21D;56981;53.532;49.398;2023-04-21T04:23:33;17.28;27.65
69715;HTU21D;56981;53.532;49.398;2023-04-21T04:25:59;17.56;27.09
69715;HTU21D;56981;53.532;49.398;2023-04-21T04:28:26;17.88;26.15
69715;HTU21D;56981;53.532;49.398;2023-04-21T04:30:53;18.11;25.41
69715;HTU21D;56981;53.532;49.398;2023-04-21T04:33:20;18.27;25.63
69715;HTU21D;56981;53.532;49.398;2023-04-21T04:35:46;18.33;25.22
69715;HTU21D;56981;53.532;49.398;2023-04-21T04:38:13;18.44;25.39
69715;HTU21D;56981;53.532;49.398;2023-04-21T04:40:42;18.43;25.39
69715;HTU21D;56981;53.532;49.398;2023-04-21T04:43:09;18.96;24.88
69715;HTU21D;56981;53.532;49.398;2023-04-21T04:45:37;18.93;25.31
69715;HTU21D;56981;53.532;49.398;2023-04-21T04:48:04;19.08;24.56
69715;HTU21D;56981;53.532;49.398;2023-04-21T04:50:30;19.36;24.94
69715;HTU21D;56981;53.532;49.398;2023-04-21T04:52:57;19.35;24.21
69715;HTU21D;56981;53.532;49.398;2023-04-21T04:55:23;19.29;23.85
69715;HTU21D;56981;53.532;49.398;2023-04-21T04:57:50;19.46;23.94
69715;HTU21D;56981;53.532;49.398;2023-04-21T05:00:17;19.25;24.66
69715;HTU21D;56981;53.532;49.398;2023-04-21T05:02:43;19.33;23.49
69715;HTU21D;56981;53.532;49.398;2023-04-21T05:05:09;19.44;23.86
69715;HTU21D;56981;53.532;49.398;2023-04-21T05:07:39;19.69;23.39
69715;HTU21D;56981;53.532;49.398;2023-04-21T05:10:06;19.73;23.06
69715;HTU21D;56981;53.532;49.398;2023-04-21T05:12:32;19.71;23.20
69715;HTU21D;56981;53.532;49.398;2023-04-21T05:14:58;19.59;23.10
69715;HTU21D;56981;53.532;49.398;2023-04-21T05:17:25;19.66;23.05
69715;HTU21D;56981;53.532;49.398;2023-04-21T05:19:52;19.66;23.14
69715;HTU21D;56981;53.532;49.398;2023-04-21T05:22:18;19.57;23.00
69715;HTU21D;56981;53.532;49.398;2023-04-21T05:24:44;19.44;23.24
69715;HTU21D;56981;53.532;49.398;2023-04-21T05:27:11;19.29;23.72
69715;HTU21D;56981;53.532;49.398;2023-04-21T05:29:37;19.33;23.62
69715;HTU21D;56981;53.532;49.398;2023-04-21T05:32:03;19.25;23.40
69715;HTU21D;56981;53.532;49.398;2023-04-21T05:34:30;19.17;23.45
69715;HTU21D;56981;53.532;49.398;2023-04-21T05:36:56;19.16;23.95
69715;HTU21D;56981;53.532;49.398;2023-04-21T05:39:23;19.29;23.66
69715;HTU21D;56981;53.532;49.398;2023-04-21T05:41:49;19.39;23.85
69715;HTU21D;56981;53.532;49.398;2023-04-21T05:44:16;19.35;24.01
69715;HTU21D;56981;53.532;49.398;2023-04-21T05:46:42;19.18;23.96
69715;HTU21D;56981;53.532;49.398;2023-04-21T05:49:09;19.05;23.81
69715;HTU21D;56981;53.532;49.398;2023-04-21T05:51:35;19.00;23.78
69715;HTU21D;56981;53.532;49.398;2023-04-21T05:54:01;19.11;23.55
69715;HTU21D;56981;53.532;49.398;2023-04-21T05:56:27;19.15;23.69
69715;HTU21D;56981;53.532;49.398;2023-04-21T05:58:53;19.23;23.62
69715;HTU21D;56981;53.532;49.398;2023-04-21T06:01:19;19.31;23.16
69715;HTU21D;56981;53.532;49.398;2023-04-21T06:03:45;19.37;23.50
69715;HTU21D;56981;53.532;49.398;2023-04-21T06:06:14;19.45;23.28
69715;HTU21D;56981;53.532;49.398;2023-04-21T06:08:40;19.40;23.47
69715;HTU21D;56981;53.532;49.398;2023-04-21T06:11:07;19.42;22.79
69715;HTU21D;56981;53.532;49.398;2023-04-21T06:13:33;19.66;23.15
69715;HTU21D;56981;53.532;49.398;2023-04-21T06:15:59;19.84;22.55
69715;HTU21D;56981;53.532;49.398;2023-04-21T06:18:28;19.85;22.50
69715;HTU21D;56981;53.532;49.398;2023-04-21T06:20:54;19.69;21.95
69715;HTU21D;56981;53.532;49.398;2023-04-21T06:23:23;19.57;22.34
69715;HTU21D;56981;53.532;49.398;2023-04-21T06:26:00;19.48;22.74
69715;HTU21D;56981;53.532;49.398;2023-04-21T06:28:29;19.59;22.97
69715;HTU21D;56981;53.532;49.398;2023-04-21T06:30:55;19.74;23.09
69715;HTU21D;56981;53.532;49.398;2023-04-21T06:33:21;19.76;22.70
69715;HTU21D;56981;53.532;49.398;2023-04-21T06:35:48;20.05;22.70
69715;HTU21D;56981;53.532;49.398;2023-04-21T06:38:14;20.01;22.50
69715;HTU21D;56981;53.532;49.398;2023-04-21T06:40:42;19.97;22.30
69715;HTU21D;56981;53.532;49.398;2023-04-21T06:43:08;19.74;22.24
69715;HTU21D;56981;53.532;49.398;2023-04-21T06:45:34;19.56;22.98
69715;HTU21D;56981;53.532;49.398;2023-04-21T06:48:01;19.27;22.71
69715;HTU21D;56981;53.532;49.398;2023-04-21T06:50:27;18.87;23.94
69715;HTU21D;56981;53.532;49.398;2023-04-21T06:52:53;18.70;23.49
69715;HTU21D;56981;53.532;49.398;2023-04-21T06:55:19;18.78;22.89
69715;HTU21D;56981;53.532;49.398;2023-04-21T06:57:45;18.87;23.22
69715;HTU21D;56981;53.532;49.398;2023-04-21T07:00:11;19.15;23.05
69715;HTU21D;56981;53.532;49.398;2023-04-21T07:02:38;19.01;23.17
69715;HTU21D;56981;53.532;49.398;2023-04-21T07:05:04;18.89;24.20
69715;HTU21D;56981;53.532;49.398;2023-04-21T07:07:31;18.94;23.88
69715;HTU21D;56981;53.532;49.398;2023-04-21T07:09:57;19.11;24.33
69715;HTU21D;56981;53.532;49.398;2023-04-21T07:12:23;19.15;23.21
69715;HTU21D;56981;53.532;49.398;2023-04-21T07:14:49;19.24;23.08
69715;HTU21D;56981;53.532;49.398;2023-04-21T07:17:15;19.36;23.07
69715;HTU21D;56981;53.532;49.398;2023-04-21T07:19:42;19.43;23.35
69715;HTU21D;56981;53.532;49.398;2023-04-21T07:22:08;19.51;23.03
69715;HTU21D;56981;53.532;49.398;2023-04-21T07:24:34;19.51;23.29
69715;HTU21D;56981;53.532;49.398;2023-04-21T07:27:02;19.37;22.90
69715;HTU21D;56981;53.532;49.398;2023-04-21T07:29:28;19.18;24.07
69715;HTU21D;56981;53.532;49.398;2023-04-21T07:31:54;19.21;23.14
69715;HTU21D;56981;53.532;49.398;2023-04-21T07:34:21;19.23;23.46
69715;HTU21D;56981;53.532;49.398;2023-04-21T07:36:49;19.28;23.34
69715;HTU21D;56981;53.532;49.398;2023-04-21T07:39:15;19.33;23.57
69715;HTU21D;56981;53.532;49.398;2023-04-21T07:41:41;19.13;23.24
69715;HTU21D;56981;53.532;49.398;2023-04-21T07:44:08;19.06;23.27
69715;HTU21D;56981;53.532;49.398;2023-04-21T07:46:34;18.87;23.35
69715;HTU21D;56981;53.532;49.398;2023-04-21T07:49:01;18.72;23.36
69715;HTU21D;56981;53.532;49.398;2023-04-21T07:51:27;19.15;22.63
69715;HTU21D;56981;53.532;49.398;2023-04-21T07:53:53;19.65;22.05
69715;HTU21D;56981;53.532;49.398;2023-04-21T07:56:19;19.80;21.66
69715;HTU21D;56981;53.532;49.398;2023-04-21T07:58:45;19.88;22.27
69715;HTU21D;56981;53.532;49.398;2023-04-21T08:01:11;19.55;22.36
69715;HTU21D;56981;53.532;49.398;2023-04-21T08:03:37;19.54;22.02
69715;HTU21D;56981;53.532;49.398;2023-04-21T08:06:04;19.66;21.50
69715;HTU21D;56981;53.532;49.398;2023-04-21T08:08:30;19.83;22.59
69715;HTU21D;56981;53.532;49.398;2023-04-21T08:10:56;19.47;22.63
69715;HTU21D;56981;53.532;49.398;2023-04-21T08:13:22;19.55;23.27
69715;HTU21D;56981;53.532;49.398;2023-04-21T08:15:51;19.13;23.66
69715;HTU21D;56981;53.532;49.398;2023-04-21T08:18:17;18.84;24.82
69715;HTU21D;56981;53.532;49.398;2023-04-21T08:20:44;18.54;24.70
69715;HTU21D;56981;53.532;49.398;2023-04-21T08:23:13;18.69;25.21
69715;HTU21D;56981;53.532;49.398;2023-04-21T08:25:39;18.67;23.85
69715;HTU21D;56981;53.532;49.398;2023-04-21T08:28:06;18.67;25.20
69715;HTU21D;56981;53.532;49.398;2023-04-21T08:30:32;18.76;24.27
69715;HTU21D;56981;53.532;49.398;2023-04-21T08:32:58;18.89;25.01
69715;HTU21D;56981;53.532;49.398;2023-04-21T08:35:24;18.70;23.62
69715;HTU21D;56981;53.532;49.398;2023-04-21T08:37:50;18.70;24.64
69715;HTU21D;56981;53.532;49.398;2023-04-21T08:40:17;18.58;26.21
69715;HTU21D;56981;53.532;49.398;2023-04-21T08:42:44;18.55;24.24
69715;HTU21D;56981;53.532;49.398;2023-04-21T08:45:10;18.61;23.85
69715;HTU21D;56981;53.532;49.398;2023-04-21T08:47:37;18.65;23.54
69715;HTU21D;56981;53.532;49.398;2023-04-21T08:50:07;18.43;24.39
69715;HTU21D;56981;53.532;49.398;2023-04-21T08:52:37;18.46;24.54
69715;HTU21D;56981;53.532;49.398;2023-04-21T08:55:05;18.53;24.99
69715;HTU21D;56981;53.532;49.398;2023-04-21T08:57:32;18.40;27.10
69715;HTU21D;56981;53.532;49.398;2023-04-21T08:59:58;18.21;27.89
69715;HTU21D;56981;53.532;49.398;2023-04-21T09:02:24;17.93;29.00
69715;HTU21D;56981;53.532;49.398;2023-04-21T09:04:51;17.53;29.60
69715;HTU21D;56981;53.532;49.398;2023-04-21T09:07:32;17.53;30.70
69715;HTU21D;56981;53.532;49.398;2023-04-21T09:09:58;17.65;30.61
69715;HTU21D;56981;53.532;49.398;2023-04-21T09:12:28;17.77;29.88
69715;HTU21D;56981;53.532;49.398;2023-04-21T09:14:55;17.95;29.09
69715;HTU21D;56981;53.532;49.398;2023-04-21T09:17:30;18.06;28.76
69715;HTU21D;56981;53.532;49.398;2023-04-21T09:20:14;18.15;29.73
69715;HTU21D;56981;53.532;49.398;2023-04-21T09:22:40;18.32;29.07
69715;HTU21D;56981;53.532;49.398;2023-04-21T09:25:08;18.11;29.06
69715;HTU21D;56981;53.532;49.398;2023-04-21T09:27:35;17.98;29.54
69715;HTU21D;56981;53.532;49.398;2023-04-21T09:30:05;18.09;29.89
69715;HTU21D;56981;53.532;49.398;2023-04-21T09:32:36;18.22;29.10
69715;HTU21D;56981;53.532;49.398;2023-04-21T09:35:10;18.22;30.18
69715;HTU21D;56981;53.532;49.398;2023-04-21T09:37:37;17.99;31.01
69715;HTU21D;56981;53.532;49.398;2023-04-21T09:40:04;17.82;32.70
69715;HTU21D;56981;53.532;49.398;2023-04-21T09:42:31;17.70;31.94
69715;HTU21D;56981;53.532;49.398;2023-04-21T09:44:57;17.76;32.38
69715;HTU21D;56981;53.532;49.398;2023-04-21T09:47:29;17.83;32.11
69715;HTU21D;56981;53.532;49.398;2023-04-21T09:49:57;17.99;31.61
69715;HTU21D;56981;53.532;49.398;2023-04-21T09:52:27;17.94;32.53
69715;HTU21D;56981;53.532;49.398;2023-04-21T09:55:00;18.07;30.86
69715;HTU21D;56981;53.532;49.398;2023-04-21T09:57:31;18.13;30.57
69715;HTU21D;56981;53.532;49.398;2023-04-21T10:00:06;17.97;30.27
69715;HTU21D;56981;53.532;49.398;2023-04-21T10:02:36;17.82;31.44
69715;HTU21D;56981;53.532;49.398;2023-04-21T10:05:06;17.77;31.63
69715;HTU21D;56981;53.532;49.398;2023-04-21T10:07:32;17.81;31.16
69715;HTU21D;56981;53.532;49.398;2023-04-21T10:09:59;17.93;31.17
69715;HTU21D;56981;53.532;49.398;2023-04-21T10:12:26;17.90;30.94
69715;HTU21D;56981;53.532;49.398;2023-04-21T10:14:54;18.00;30.81
69715;HTU21D;56981;53.532;49.398;2023-04-21T10:17:27;18.03;31.13
69715;HTU21D;56981;53.532;49.398;2023-04-21T10:19:55;18.14;30.81
69715;HTU21D;56981;53.532;49.398;2023-04-21T10:22:30;18.23;30.90
69715;HTU21D;56981;53.532;49.398;2023-04-21T10:24:58;18.32;30.48
69715;HTU21D;56981;53.532;49.398;2023-04-21T10:27:33;18.19;30.83
69715;HTU21D;56981;53.532;49.398;2023-04-21T10:29:59;18.26;30.49
69715;HTU21D;56981;53.532;49.398;2023-04-21T10:32:42;18.39;30.34
69715;HTU21D;56981;53.532;49.398;2023-04-21T10:35:15;18.36;29.92
69715;HTU21D;56981;53.532;49.398;2023-04-21T10:37:42;18.50;29.83
69715;HTU21D;56981;53.532;49.398;2023-04-21T10:42:58;18.50;30.51
69715;HTU21D;56981;53.532;49.398;2023-04-21T10:45:27;18.39;30.71
69715;HTU21D;56981;53.532;49.398;2023-04-21T10:47:53;18.42;30.89
69715;HTU21D;56981;53.532;49.398;2023-04-21T10:52:55;18.37;30.34
69715;HTU21D;56981;53.532;49.398;2023-04-21T10:55:25;18.28;30.52
69715;HTU21D;56981;53.532;49.398;2023-04-21T10:57:52;18.24;30.61
69715;HTU21D;56981;53.532;49.398;2023-04-21T11:00:20;18.26;30.51
69715;HTU21D;56981;53.532;49.398;2023-04-21T11:03:08;18.47;30.33
69715;HTU21D;56981;53.532;49.398;2023-04-21T11:05:39;18.44;30.18
69715;HTU21D;56981;53.532;49.398;2023-04-21T11:08:10;18.33;29.98
69715;HTU21D;56981;53.532;49.398;2023-04-21T11:10:54;18.24;29.70
69715;HTU21D;56981;53.532;49.398;2023-04-21T11:13:22;18.27;29.48
69715;HTU21D;56981;53.532;49.398;2023-04-21T11:16:01;18.21;30.93
69715;HTU21D;56981;53.532;49.398;2023-04-21T11:18:38;18.20;30.98
69715;HTU21D;56981;53.532;49.398;2023-04-21T11:21:15;18.14;30.45
69715;HTU21D;56981;53.532;49.398;2023-04-21T11:23:52;18.07;30.54
69715;HTU21D;56981;53.532;49.398;2023-04-21T11:26:29;17.95;30.80
69715;HTU21D;56981;53.532;49.398;2023-04-21T11:29:02;17.94;31.43
69715;HTU21D;56981;53.532;49.398;2023-04-21T11:31:30;17.89;31.57
69715;HTU21D;56981;53.532;49.398;2023-04-21T11:34:01;17.80;31.87
69715;HTU21D;56981;53.532;49.398;2023-04-21T11:36:37;17.74;32.07
69715;HTU21D;56981;53.532;49.398;2023-04-21T11:39:09;17.76;31.22
69715;HTU21D;56981;53.532;49.398;2023-04-21T11:41:39;17.82;31.40
69715;HTU21D;56981;53.532;49.398;2023-04-21T11:44:07;17.83;31.14
69715;HTU21D;56981;53.532;49.398;2023-04-21T11:46:33;17.72;31.04
69715;HTU21D;56981;53.532;49.398;2023-04-21T11:49:06;17.54;31.70
69715;HTU21D;56981;53.532;49.398;2023-04-21T11:51:43;17.53;32.06
69715;HTU21D;56981;53.532;49.398;2023-04-21T11:54:11;17.51;32.03
69715;HTU21D;56981;53.532;49.398;2023-04-21T11:56:45;17.41;32.41
69715;HTU21D;56981;53.532;49.398;2023-04-21T11:59:13;17.44;32.33
69715;HTU21D;56981;53.532;49.398;2023-04-21T12:01:47;17.40;32.39
69715;HTU21D;56981;53.532;49.398;2023-04-21T12:04:18;17.40;32.25
69715;HTU21D;56981;53.532;49.398;2023-04-21T12:06:46;17.37;32.42
69715;HTU21D;56981;53.532;49.398;2023-04-21T12:09:17;17.33;32.52
69715;HTU21D;56981;53.532;49.398;2023-04-21T12:11:52;17.19;31.83
69715;HTU21D;56981;53.532;49.398;2023-04-21T12:14:20;16.99;32.64
69715;HTU21D;56981;53.532;49.398;2023-04-21T12:16:48;16.81;33.47
69715;HTU21D;56981;53.532;49.398;2023-04-21T12:19:36;16.74;33.28
69715;HTU21D;56981;53.532;49.398;2023-04-21T12:22:07;16.84;33.73
69715;HTU21D;56981;53.532;49.398;2023-04-21T12:24:35;16.85;33.38
69715;HTU21D;56981;53.532;49.398;2023-04-21T12:27:01;16.96;33.34
69715;HTU21D;56981;53.532;49.398;2023-04-21T12:29:28;17.08;32.70
69715;HTU21D;56981;53.532;49.398;2023-04-21T12:31:55;17.10;32.33
69715;HTU21D;56981;53.532;49.398;2023-04-21T12:34:22;17.11;31.94
69715;HTU21D;56981;53.532;49.398;2023-04-21T12:36:48;17.03;31.81
69715;HTU21D;56981;53.532;49.398;2023-04-21T12:39:15;16.93;32.05
69715;HTU21D;56981;53.532;49.398;2023-04-21T12:41:44;16.94;32.06
69715;HTU21D;56981;53.532;49.398;2023-04-21T12:44:12;17.03;31.88
69715;HTU21D;56981;53.532;49.398;2023-04-21T12:46:39;17.08;31.98
69715;HTU21D;56981;53.532;49.398;2023-04-21T12:49:06;16.98;31.73
69715;HTU21D;56981;53.532;49.398;2023-04-21T12:51:34;16.87;32.50
69715;HTU21D;56981;53.532;49.398;2023-04-21T12:54:00;16.74;33.28
69715;HTU21D;56981;53.532;49.398;2023-04-21T12:56:27;16.70;33.60
69715;HTU21D;56981;53.532;49.398;2023-04-21T12:58:54;16.77;33.57
69715;HTU21D;56981;53.532;49.398;2023-04-21T13:01:21;16.71;33.27
69715;HTU21D;56981;53.532;49.398;2023-04-21T13:03:47;16.59;33.22
69715;HTU21D;56981;53.532;49.398;2023-04-21T13:06:14;16.58;33.37
69715;HTU21D;56981;53.532;49.398;2023-04-21T13:08:40;16.54;33.43
69715;HTU21D;56981;53.532;49.398;2023-04-21T13:11:07;16.48;33.47
69715;HTU21D;56981;53.532;49.398;2023-04-21T13:13:33;16.46;33.59
69715;HTU21D;56981;53.532;49.398;2023-04-21T13:15:59;16.47;33.61
69715;HTU21D;56981;53.532;49.398;2023-04-21T13:18:25;16.51;33.97
69715;HTU21D;56981;53.532;49.398;2023-04-21T13:20:52;16.42;34.22
69715;HTU21D;56981;53.532;49.398;2023-04-21T13:23:18;16.40;34.44
69715;HTU21D;56981;53.532;49.398;2023-04-21T13:25:45;16.36;34.58
69715;HTU21D;56981;53.532;49.398;2023-04-21T13:28:11;16.40;34.49
69715;HTU21D;56981;53.532;49.398;2023-04-21T13:30:42;16.42;34.39
69715;HTU21D;56981;53.532;49.398;2023-04-21T13:33:08;16.42;34.67
69715;HTU21D;56981;53.532;49.398;2023-04-21T13:35:34;16.46;34.18
69715;HTU21D;56981;53.532;49.398;2023-04-21T13:38:00;16.44;34.08
69715;HTU21D;56981;53.532;49.398;2023-04-21T13:40:27;16.47;33.99
69715;HTU21D;56981;53.532;49.398;2023-04-21T13:42:55;16.52;33.63
69715;HTU21D;56981;53.532;49.398;2023-04-21T13:45:23;16.50;33.75
69715;HTU21D;56981;53.532;49.398;2023-04-21T13:47:50;16.51;33.58
69715;HTU21D;56981;53.532;49.398;2023-04-21T13:50:17;16.49;33.84
69715;HTU21D;56981;53.532;49.398;2023-04-21T13:52:44;16.50;34.13
69715;HTU21D;56981;53.532;49.398;2023-04-21T13:55:10;16.49;34.37
69715;HTU21D;56981;53.532;49.398;2023-04-21T13:57:37;16.36;34.52
69715;HTU21D;56981;53.532;49.398;2023-04-21T14:00:04;16.27;34.53
69715;HTU21D;56981;53.532;49.398;2023-04-21T14:02:31;16.24;34.78
69715;HTU21D;56981;53.532;49.398;2023-04-21T14:04:57;16.21;34.79
69715;HTU21D;56981;53.532;49.398;2023-04-21T14:07:24;16.13;34.83
69715;HTU21D;56981;53.532;49.398;2023-04-21T14:09:51;16.11;34.97
69715;HTU21D;56981;53.532;49.398;2023-04-21T14:12:17;16.07;35.24
69715;HTU21D;56981;53.532;49.398;2023-04-21T14:14:44;16.05;35.48
69715;HTU21D;56981;53.532;49.398;2023-04-21T14:17:10;15.91;35.26
69715;HTU21D;56981;53.532;49.398;2023-04-21T14:19:36;15.87;35.37
69715;HTU21D;56981;53.532;49.398;2023-04-21T14:22:03;15.86;35.45
69715;HTU21D;56981;53.532;49.398;2023-04-21T14:24:29;15.85;35.09
69715;HTU21D;56981;53.532;49.398;2023-04-21T14:26:57;15.82;35.05
69715;HTU21D;56981;53.532;49.398;2023-04-21T14:29:24;15.80;35.36
69715;HTU21D;56981;53.532;49.398;2023-04-21T14:31:50;15.77;35.27
69715;HTU21D;56981;53.532;49.398;2023-04-21T14:34:18;15.76;35.37
69715;HTU21D;56981;53.532;49.398;2023-04-21T14:36:44;15.72;35.36
69715;HTU21D;56981;53.532;49.398;2023-04-21T14:39:15;15.67;35.21
69715;HTU21D;56981;53.532;49.398;2023-04-21T14:41:41;15.66;35.31
69715;HTU21D;56981;53.532;49.398;2023-04-21T14:44:07;15.61;35.76
69715;HTU21D;56981;53.532;49.398;2023-04-21T14:46:35;15.55;36.26
69715;HTU21D;56981;53.532;49.398;2023-04-21T14:49:02;15.55;36.53
69715;HTU21D;56981;53.532;49.398;2023-04-21T14:51:29;15.51;36.88
69715;HTU21D;56981;53.532;49.398;2023-04-21T14:53:57;15.47;36.82
69715;HTU21D;56981;53.532;49.398;2023-04-21T14:56:23;15.39;37.17
69715;HTU21D;56981;53.532;49.398;2023-04-21T14:58:50;15.22;39.82
69715;HTU21D;56981;53.532;49.398;2023-04-21T15:01:16;15.04;40.17
69715;HTU21D;56981;53.532;49.398;2023-04-21T15:03:43;14.95;40.22
69715;HTU21D;56981;53.532;49.398;2023-04-21T15:06:10;14.94;40.27
69715;HTU21D;56981;53.532;49.398;2023-04-21T15:08:36;14.91;38.74
69715;HTU21D;56981;53.532;49.398;2023-04-21T15:11:03;14.96;38.09